Time;durP1;ratioP1;P1;durP2;ratioP2;P2;SDS_P1;SDS_P2;PMS_P1;PMS_P2;Temp;Humidity;BMP_temperature;BMP_pressure;BME280_temperature;BME280_humidity;BME280_pressure;Samples;Min_cycle;Max_cycle;Signal;HPM_P1;HPM_P2
2021/03/05 00:01:40;;;;;;;0.00;0.00;;;;;;;;;;5018957;28;21117;-63
2021/03/05 00:04:07;;;;;;;0.07;0.07;;;;;;;;;;5013178;28;20516;-63
2021/03/05 00:06:35;;;;;;;1.70;0.83;;;;;;;;;;5014767;28;20774;-64
2021/03/05 00:09:02;;;;;;;0.00;0.00;;;;;;;;;;5022277;28;20262;-64
2021/03/05 00:11:31;;;;;;;0.50;0.50;;;;;;;;;;5019673;28;20226;-63
2021/03/05 00:13:59;;;;;;;0.00;0.00;;;;;;;;;;5015939;28;20269;-63
2021/03/05 00:16:27;;;;;;;0.00;0.00;;;;;;;;;;5016511;28;20193;-63
2021/03/05 00:18:55;;;;;;;0.00;0.00;;;;;;;;;;5018369;28;20302;-63
2021/03/05 00:21:21;;;;;;;0.53;0.40;;;;;;;;;;5015557;28;20187;-63
2021/03/05 00:23:48;;;;;;;0.07;0.07;;;;;;;;;;5018608;28;20191;-63
2021/03/05 00:26:14;;;;;;;3.70;0.90;;;;;;;;;;5018632;28;20944;-63
2021/03/05 00:28:51;;;;;;;4.47;0.77;;;;;;;;;;5012796;28;20611;-63
2021/03/05 00:31:18;;;;;;;0.40;0.40;;;;;;;;;;5019132;28;20604;-64
2021/03/05 00:33:46;;;;;;;0.00;0.00;;;;;;;;;;5017726;28;20202;-64
2021/03/05 00:36:14;;;;;;;2.87;2.77;;;;;;;;;;5017714;28;20245;-64
2021/03/05 00:38:41;;;;;;;4.20;3.80;;;;;;;;;;5013333;28;20241;-63
2021/03/05 00:41:09;;;;;;;0.00;0.00;;;;;;;;;;5011889;28;20180;-63
2021/03/05 00:43:38;;;;;;;0.00;0.00;;;;;;;;;;5013519;28;20534;-64
2021/03/05 00:46:04;;;;;;;2.57;0.33;;;;;;;;;;5016301;28;20177;-64
2021/03/05 00:48:32;;;;;;;0.00;0.00;;;;;;;;;;5019409;28;20957;-64
2021/03/05 00:51:05;;;;;;;0.00;0.00;;;;;;;;;;5018989;28;20192;-64
2021/03/05 00:53:34;;;;;;;0.00;0.00;;;;;;;;;;5014576;28;20180;-64
2021/03/05 00:56:03;;;;;;;0.10;0.10;;;;;;;;;;5011479;28;20197;-64
2021/03/05 00:58:30;;;;;;;0.00;0.00;;;;;;;;;;5011860;28;20172;-64
2021/03/05 01:00:58;;;;;;;0.00;0.00;;;;;;;;;;5010413;28;20208;-64
2021/03/05 01:03:26;;;;;;;0.63;0.63;;;;;;;;;;5008225;28;20204;-64
2021/03/05 01:05:53;;;;;;;0.10;0.10;;;;;;;;;;5012608;28;20177;-63
2021/03/05 01:08:19;;;;;;;0.00;0.00;;;;;;;;;;5015487;28;21134;-64
2021/03/05 01:10:46;;;;;;;0.43;0.43;;;;;;;;;;5011784;28;20188;-64
2021/03/05 01:13:16;;;;;;;0.77;0.77;;;;;;;;;;5013897;28;20251;-64
2021/03/05 01:15:43;;;;;;;0.00;0.00;;;;;;;;;;5014087;28;20684;-64
2021/03/05 01:18:09;;;;;;;2.33;0.67;;;;;;;;;;5013476;28;20177;-64
2021/03/05 01:20:39;;;;;;;0.00;0.00;;;;;;;;;;5032538;28;20204;-64
2021/03/05 01:23:05;;;;;;;0.00;0.00;;;;;;;;;;5032793;28;20184;-63
2021/03/05 01:25:33;;;;;;;0.00;0.00;;;;;;;;;;5007985;28;20275;-64
2021/03/05 01:28:02;;;;;;;0.00;0.00;;;;;;;;;;5009679;28;20283;-64
2021/03/05 01:30:29;;;;;;;0.00;0.00;;;;;;;;;;5008423;28;20299;-64
2021/03/05 01:32:55;;;;;;;0.10;0.10;;;;;;;;;;5011267;28;20232;-64
2021/03/05 01:35:23;;;;;;;0.00;0.00;;;;;;;;;;5006722;28;20191;-64
2021/03/05 01:37:51;;;;;;;1.03;0.90;;;;;;;;;;5010114;28;20184;-64
2021/03/05 01:40:19;;;;;;;0.00;0.00;;;;;;;;;;5012495;28;20197;-65
2021/03/05 01:42:47;;;;;;;2.40;1.83;;;;;;;;;;5010798;28;20726;-64
2021/03/05 01:45:16;;;;;;;0.10;0.10;;;;;;;;;;5024075;28;20330;-64
2021/03/05 01:47:44;;;;;;;0.00;0.00;;;;;;;;;;5010090;28;20200;-64
2021/03/05 01:50:16;;;;;;;0.00;0.00;;;;;;;;;;5011696;28;20249;-64
2021/03/05 01:52:49;;;;;;;0.00;0.00;;;;;;;;;;5013028;28;20257;-63
2021/03/05 01:55:16;;;;;;;0.20;0.20;;;;;;;;;;5007663;28;20168;-63
2021/03/05 01:57:46;;;;;;;0.00;0.00;;;;;;;;;;5014035;28;20184;-64
2021/03/05 02:00:16;;;;;;;0.10;0.10;;;;;;;;;;5010612;28;20176;-63
2021/03/05 02:02:43;;;;;;;0.00;0.00;;;;;;;;;;5013329;28;20268;-63
2021/03/05 02:05:10;;;;;;;0.33;0.33;;;;;;;;;;5018222;28;20261;-64
2021/03/05 02:07:39;;;;;;;0.10;0.10;;;;;;;;;;5017514;28;20664;-63
2021/03/05 02:10:08;;;;;;;0.00;0.00;;;;;;;;;;5017374;28;20187;-63
2021/03/05 02:12:35;;;;;;;0.00;0.00;;;;;;;;;;5021428;28;20225;-64
2021/03/05 02:15:04;;;;;;;0.00;0.00;;;;;;;;;;5021141;28;20180;-63
2021/03/05 02:17:54;;;;;;;0.20;0.20;;;;;;;;;;5032027;28;20183;-63
2021/03/05 02:20:40;;;;;;;0.00;0.00;;;;;;;;;;5013636;28;20189;-63
2021/03/05 02:23:25;;;;;;;0.10;0.10;;;;;;;;;;5015361;28;20527;-63
2021/03/05 02:26:09;;;;;;;0.00;0.00;;;;;;;;;;5013708;28;20181;-64
2021/03/05 02:28:58;;;;;;;0.10;0.10;;;;;;;;;;5017398;28;20872;-64
2021/03/05 02:31:26;;;;;;;0.00;0.00;;;;;;;;;;5019961;28;20706;-63
2021/03/05 02:34:00;;;;;;;0.17;0.17;;;;;;;;;;5014680;28;20224;-64
2021/03/05 02:36:33;;;;;;;0.00;0.00;;;;;;;;;;5019402;28;20615;-63
2021/03/05 02:39:22;;;;;;;0.00;0.00;;;;;;;;;;5015800;28;20191;-63
2021/03/05 02:41:59;;;;;;;0.00;0.00;;;;;;;;;;5015997;28;20629;-64
2021/03/05 02:44:32;;;;;;;0.10;0.10;;;;;;;;;;5019085;28;20189;-63
2021/03/05 02:47:05;;;;;;;0.30;0.27;;;;;;;;;;5016789;28;20177;-63
2021/03/05 02:49:33;;;;;;;0.00;0.00;;;;;;;;;;5017456;28;20196;-63
2021/03/05 02:52:06;;;;;;;0.00;0.00;;;;;;;;;;5017760;28;20212;-63
2021/03/05 02:54:34;;;;;;;0.00;0.00;;;;;;;;;;5015514;28;20595;-63
2021/03/05 02:57:02;;;;;;;0.00;0.00;;;;;;;;;;5017110;28;21140;-63
2021/03/05 02:59:29;;;;;;;0.00;0.00;;;;;;;;;;4993724;28;20188;-64
2021/03/05 03:01:58;;;;;;;0.00;0.00;;;;;;;;;;5013551;28;20839;-63
2021/03/05 03:04:27;;;;;;;0.10;0.10;;;;;;;;;;5013486;28;20187;-65
2021/03/05 03:06:55;;;;;;;0.70;0.70;;;;;;;;;;5014954;28;20391;-64
2021/03/05 03:09:22;;;;;;;0.20;0.20;;;;;;;;;;5010886;28;20274;-63
2021/03/05 03:11:49;;;;;;;0.00;0.00;;;;;;;;;;5015225;28;20207;-64
2021/03/05 03:14:16;;;;;;;2.63;0.77;;;;;;;;;;5014148;28;20234;-64
2021/03/05 03:16:43;;;;;;;0.10;0.10;;;;;;;;;;5013986;28;20315;-64
2021/03/05 03:19:12;;;;;;;0.10;0.10;;;;;;;;;;5017959;28;20913;-64
2021/03/05 03:21:40;;;;;;;0.30;0.30;;;;;;;;;;5013832;28;20677;-64
2021/03/05 03:24:09;;;;;;;0.07;0.07;;;;;;;;;;5014840;28;20185;-63
2021/03/05 03:26:40;;;;;;;0.97;0.87;;;;;;;;;;5013290;28;20214;-64
2021/03/05 03:29:07;;;;;;;0.10;0.10;;;;;;;;;;5011339;28;20192;-63
2021/03/05 03:31:34;;;;;;;0.40;0.40;;;;;;;;;;5014749;28;20265;-64
2021/03/05 03:34:01;;;;;;;0.30;0.30;;;;;;;;;;5012899;28;20200;-64
2021/03/05 03:36:28;;;;;;;3.27;0.77;;;;;;;;;;5012072;28;20333;-63
2021/03/05 03:38:56;;;;;;;3.50;1.63;;;;;;;;;;5019392;28;20254;-64
2021/03/05 03:41:23;;;;;;;0.10;0.10;;;;;;;;;;5018436;28;20180;-64
2021/03/05 03:43:49;;;;;;;0.10;0.10;;;;;;;;;;5017009;28;20175;-64
2021/03/05 03:46:16;;;;;;;0.33;0.33;;;;;;;;;;5017881;28;21136;-64
2021/03/05 03:48:48;;;;;;;0.33;0.33;;;;;;;;;;5019212;28;20657;-64
2021/03/05 03:51:18;;;;;;;1.03;0.80;;;;;;;;;;5014736;28;20194;-63
2021/03/05 03:53:45;;;;;;;0.10;0.10;;;;;;;;;;5014008;28;21726;-64
2021/03/05 03:56:12;;;;;;;0.10;0.10;;;;;;;;;;5015148;28;20200;-64
2021/03/05 03:58:39;;;;;;;0.10;0.10;;;;;;;;;;5017628;28;20511;-64
2021/03/05 04:01:10;;;;;;;0.10;0.10;;;;;;;;;;5016292;28;20329;-64
2021/03/05 04:03:39;;;;;;;0.47;0.47;;;;;;;;;;5015605;28;20176;-64
2021/03/05 04:06:07;;;;;;;1.13;0.50;;;;;;;;;;5014922;28;20195;-64
2021/03/05 04:08:39;;;;;;;0.00;0.00;;;;;;;;;;5018098;28;20186;-64
2021/03/05 04:11:07;;;;;;;8.10;7.67;;;;;;;;;;5013356;28;20306;-64
2021/03/05 04:13:34;;;;;;;1.40;1.10;;;;;;;;;;5013647;28;20191;-64
2021/03/05 04:16:00;;;;;;;0.10;0.10;;;;;;;;;;5017552;28;20217;-63
2021/03/05 04:18:32;;;;;;;0.10;0.10;;;;;;;;;;5011532;28;20191;-64
2021/03/05 04:21:00;;;;;;;0.10;0.10;;;;;;;;;;5021922;28;20187;-64
2021/03/05 04:23:27;;;;;;;0.50;0.50;;;;;;;;;;5017488;28;20194;-63
2021/03/05 04:25:53;;;;;;;0.40;0.40;;;;;;;;;;5015125;28;20182;-64
2021/03/05 04:28:20;;;;;;;0.10;0.10;;;;;;;;;;5014064;28;20196;-64
2021/03/05 04:30:47;;;;;;;0.20;0.20;;;;;;;;;;5016379;28;20187;-64
2021/03/05 04:33:13;;;;;;;0.10;0.10;;;;;;;;;;5017594;28;20337;-64
2021/03/05 04:35:40;;;;;;;0.10;0.10;;;;;;;;;;5016824;28;20884;-63
2021/03/05 04:38:06;;;;;;;0.30;0.30;;;;;;;;;;5014731;28;20294;-64
2021/03/05 04:40:33;;;;;;;0.10;0.10;;;;;;;;;;5013885;28;20184;-64
2021/03/05 04:42:59;;;;;;;0.20;0.20;;;;;;;;;;5017888;28;20727;-64
2021/03/05 04:45:28;;;;;;;0.37;0.37;;;;;;;;;;5015864;28;20948;-64
2021/03/05 04:47:55;;;;;;;0.50;0.50;;;;;;;;;;5017002;28;20215;-64
2021/03/05 04:50:21;;;;;;;0.10;0.10;;;;;;;;;;5015577;28;20195;-64
2021/03/05 04:52:48;;;;;;;0.40;0.40;;;;;;;;;;5022828;28;20304;-64
2021/03/05 04:55:14;;;;;;;0.43;0.43;;;;;;;;;;5017336;28;20194;-64
2021/03/05 04:57:41;;;;;;;13.83;12.17;;;;;;;;;;5011449;28;20613;-64
2021/03/05 05:00:08;;;;;;;0.10;0.10;;;;;;;;;;5019765;28;20245;-63
2021/03/05 05:02:36;;;;;;;0.40;0.40;;;;;;;;;;5016181;28;20194;-63
2021/03/05 05:05:03;;;;;;;0.20;0.20;;;;;;;;;;5018446;28;20302;-64
2021/03/05 05:07:29;;;;;;;0.10;0.10;;;;;;;;;;5014868;28;20323;-64
2021/03/05 05:09:56;;;;;;;0.10;0.10;;;;;;;;;;5014257;28;20436;-64
2021/03/05 05:12:22;;;;;;;0.27;0.23;;;;;;;;;;5020838;28;20215;-64
2021/03/05 05:14:49;;;;;;;0.27;0.27;;;;;;;;;;5016273;28;20198;-64
2021/03/05 05:17:15;;;;;;;0.10;0.10;;;;;;;;;;5016469;28;20191;-63
2021/03/05 05:19:43;;;;;;;0.10;0.10;;;;;;;;;;5013963;28;20189;-63
2021/03/05 05:22:10;;;;;;;2.10;2.00;;;;;;;;;;5015553;28;20179;-64
2021/03/05 05:24:37;;;;;;;1.07;0.97;;;;;;;;;;5019441;28;20279;-64
2021/03/05 05:27:04;;;;;;;0.00;0.00;;;;;;;;;;5015876;28;20182;-64
2021/03/05 05:29:31;;;;;;;0.60;0.60;;;;;;;;;;5018726;28;21735;-64
2021/03/05 05:31:58;;;;;;;0.70;0.70;;;;;;;;;;5016189;28;20440;-64
2021/03/05 05:34:24;;;;;;;0.10;0.10;;;;;;;;;;5014607;28;20232;-64
2021/03/05 05:36:52;;;;;;;0.43;0.43;;;;;;;;;;5013833;28;20183;-64
2021/03/05 05:39:18;;;;;;;0.30;0.30;;;;;;;;;;5015829;28;20179;-64
2021/03/05 05:41:45;;;;;;;0.10;0.10;;;;;;;;;;5015274;28;20198;-64
2021/03/05 05:44:12;;;;;;;0.73;0.40;;;;;;;;;;5016283;28;20608;-63
2021/03/05 05:46:40;;;;;;;0.33;0.33;;;;;;;;;;5016479;28;20195;-63
2021/03/05 05:49:06;;;;;;;0.20;0.20;;;;;;;;;;5011746;28;20236;-63
2021/03/05 05:51:39;;;;;;;0.30;0.30;;;;;;;;;;5015875;28;20206;-63
2021/03/05 05:54:09;;;;;;;0.73;0.70;;;;;;;;;;5010464;28;20263;-63
2021/03/05 05:56:39;;;;;;;6.60;5.40;;;;;;;;;;5015367;28;20186;-63
2021/03/05 05:59:06;;;;;;;1.50;1.00;;;;;;;;;;5016135;28;20177;-63
2021/03/05 06:01:34;;;;;;;0.67;0.67;;;;;;;;;;5015309;28;20194;-64
2021/03/05 06:04:05;;;;;;;0.67;0.67;;;;;;;;;;5017133;28;20217;-63
2021/03/05 06:06:32;;;;;;;7.43;6.90;;;;;;;;;;5014179;28;20189;-63
2021/03/05 06:09:00;;;;;;;3.47;3.23;;;;;;;;;;5015830;28;20189;-64
2021/03/05 06:11:33;;;;;;;0.10;0.10;;;;;;;;;;5014610;28;20595;-63
2021/03/05 06:14:04;;;;;;;0.97;0.97;;;;;;;;;;5014118;28;20717;-64
2021/03/05 06:16:31;;;;;;;0.63;0.63;;;;;;;;;;5017158;28;20260;-63
2021/03/05 06:18:59;;;;;;;0.20;0.20;;;;;;;;;;5016593;28;20837;-63
2021/03/05 06:21:43;;;;;;;0.10;0.10;;;;;;;;;;5015441;28;22062;-63
2021/03/05 06:24:10;;;;;;;1.20;0.50;;;;;;;;;;5017238;28;20174;-64
2021/03/05 06:26:52;;;;;;;0.83;0.83;;;;;;;;;;5017727;28;20269;-64
2021/03/05 06:29:19;;;;;;;6.27;1.93;;;;;;;;;;5013271;28;20193;-64
2021/03/05 06:31:56;;;;;;;0.10;0.10;;;;;;;;;;5030520;28;20284;-64
2021/03/05 06:34:23;;;;;;;0.10;0.10;;;;;;;;;;5012871;28;20197;-64
2021/03/05 06:37:02;;;;;;;0.10;0.10;;;;;;;;;;5010966;28;20264;-64
2021/03/05 06:39:29;;;;;;;0.57;0.57;;;;;;;;;;5012475;28;20246;-64
2021/03/05 06:42:02;;;;;;;0.90;0.90;;;;;;;;;;5013617;28;20193;-63
2021/03/05 06:44:29;;;;;;;0.10;0.10;;;;;;;;;;5011229;28;20199;-64
2021/03/05 06:46:56;;;;;;;0.10;0.10;;;;;;;;;;5015323;28;20475;-63
2021/03/05 06:49:22;;;;;;;0.00;0.00;;;;;;;;;;5016742;28;20201;-63
2021/03/05 06:51:54;;;;;;;7.10;1.80;;;;;;;;;;5009727;28;20217;-63
2021/03/05 06:54:21;;;;;;;0.83;0.83;;;;;;;;;;5021584;28;20186;-64
2021/03/05 06:56:51;;;;;;;0.50;0.50;;;;;;;;;;5016000;28;20194;-63
2021/03/05 06:59:19;;;;;;;1.80;1.70;;;;;;;;;;5016886;28;20191;-63
2021/03/05 07:01:46;;;;;;;0.17;0.17;;;;;;;;;;5014522;28;20599;-64
2021/03/05 07:04:31;;;;;;;0.83;0.83;;;;;;;;;;5018506;28;20192;-63
2021/03/05 07:06:58;;;;;;;0.90;0.53;;;;;;;;;;5015771;28;20183;-63
2021/03/05 07:09:26;;;;;;;13.97;1.03;;;;;;;;;;5012050;28;20245;-63
2021/03/05 07:11:54;;;;;;;1.20;0.37;;;;;;;;;;5013078;28;20302;-63
2021/03/05 07:14:25;;;;;;;0.10;0.10;;;;;;;;;;5019277;28;20282;-63
2021/03/05 07:16:54;;;;;;;1.37;1.30;;;;;;;;;;5022728;28;20932;-63
2021/03/05 07:19:20;;;;;;;0.00;0.00;;;;;;;;;;5015602;28;20250;-63
2021/03/05 07:21:48;;;;;;;0.77;0.77;;;;;;;;;;5011821;28;20295;-63
2021/03/05 07:24:18;;;;;;;0.10;0.10;;;;;;;;;;5020211;28;20583;-63
2021/03/05 07:26:57;;;;;;;4.27;0.83;;;;;;;;;;5021519;28;20904;-63
2021/03/05 07:29:25;;;;;;;1.23;0.97;;;;;;;;;;5016660;28;20231;-63
2021/03/05 07:32:11;;;;;;;0.13;0.13;;;;;;;;;;5014889;28;20207;-64
2021/03/05 07:34:45;;;;;;;0.10;0.10;;;;;;;;;;5022517;28;20797;-63
2021/03/05 07:37:13;;;;;;;1.10;0.43;;;;;;;;;;5012163;28;20187;-63
2021/03/05 07:39:42;;;;;;;0.67;0.67;;;;;;;;;;5022245;28;20214;-63
2021/03/05 07:42:10;;;;;;;2.17;1.40;;;;;;;;;;5023753;28;20191;-63
2021/03/05 07:44:37;;;;;;;0.60;0.60;;;;;;;;;;5022470;28;20606;-64
2021/03/05 07:47:09;;;;;;;0.40;0.40;;;;;;;;;;5016673;28;20697;-64
2021/03/05 07:49:37;;;;;;;0.10;0.10;;;;;;;;;;5015706;28;20198;-63
2021/03/05 07:52:04;;;;;;;1.37;1.27;;;;;;;;;;5017864;28;20211;-63
2021/03/05 07:54:49;;;;;;;0.00;0.00;;;;;;;;;;5034062;28;20190;-64
2021/03/05 07:57:15;;;;;;;1.40;1.13;;;;;;;;;;5020352;28;20885;-64
2021/03/05 07:59:44;;;;;;;0.10;0.10;;;;;;;;;;5014744;28;20200;-63
2021/03/05 08:02:11;;;;;;;0.10;0.10;;;;;;;;;;5017885;28;20187;-64
2021/03/05 13:30:37;;;;;;;1.87;0.57;;;;;;;;;;5088136;27;20567;-61
2021/03/05 13:33:04;;;;;;;1.33;0.97;;;;;;;;;;5092180;28;20182;-61
2021/03/05 13:35:36;;;;;;;0.53;0.43;;;;;;;;;;5083158;28;20188;-61
2021/03/05 13:38:04;;;;;;;5.43;1.97;;;;;;;;;;5086614;28;20177;-61
2021/03/05 13:40:31;;;;;;;0.40;0.40;;;;;;;;;;5092560;28;20240;-60
2021/03/05 13:42:59;;;;;;;0.73;0.73;;;;;;;;;;5086177;28;20186;-60
2021/03/05 13:45:26;;;;;;;3.60;2.37;;;;;;;;;;5067168;28;20191;-61
2021/03/05 13:47:58;;;;;;;0.47;0.20;;;;;;;;;;5092377;28;20192;-61
2021/03/05 13:50:25;;;;;;;0.00;0.00;;;;;;;;;;5086447;28;20179;-61
2021/03/05 13:52:53;;;;;;;3.97;1.20;;;;;;;;;;5086576;28;20205;-61
2021/03/05 13:55:20;;;;;;;0.53;0.30;;;;;;;;;;5088424;28;20180;-61
2021/03/05 13:57:49;;;;;;;0.87;0.87;;;;;;;;;;5087551;28;20182;-61
2021/03/05 14:00:17;;;;;;;1.50;1.40;;;;;;;;;;5068393;28;20322;-60
2021/03/05 14:03:01;;;;;;;8.33;2.37;;;;;;;;;;5087551;28;20235;-61
2021/03/05 14:05:29;;;;;;;2.63;1.57;;;;;;;;;;5079671;28;20199;-61
2021/03/05 14:07:56;;;;;;;2.37;2.27;;;;;;;;;;5080330;28;20165;-61
2021/03/05 14:10:23;;;;;;;0.27;0.27;;;;;;;;;;5085434;28;20346;-60
2021/03/05 14:12:49;;;;;;;2.60;1.23;;;;;;;;;;5086118;28;20196;-60
2021/03/05 14:15:16;;;;;;;0.17;0.17;;;;;;;;;;5089596;28;20184;-60
2021/03/05 14:17:44;;;;;;;2.50;0.80;;;;;;;;;;5079882;28;20695;-60
2021/03/05 14:20:12;;;;;;;1.80;1.23;;;;;;;;;;5084760;28;20177;-60
2021/03/05 14:22:39;;;;;;;1.60;1.13;;;;;;;;;;5083324;28;20182;-60
2021/03/05 14:25:06;;;;;;;0.00;0.00;;;;;;;;;;5082106;28;20726;-60
2021/03/05 14:27:35;;;;;;;1.77;1.50;;;;;;;;;;5080825;28;20178;-60
2021/03/05 14:30:03;;;;;;;0.23;0.20;;;;;;;;;;5080549;28;20223;-60
2021/03/05 14:32:30;;;;;;;0.20;0.20;;;;;;;;;;5078485;28;20181;-60
2021/03/05 14:34:58;;;;;;;2.27;0.60;;;;;;;;;;5077879;28;20202;-60
2021/03/05 14:37:26;;;;;;;0.93;0.43;;;;;;;;;;5079798;28;20208;-61
2021/03/05 14:39:53;;;;;;;4.73;1.20;;;;;;;;;;5076147;28;20171;-60
2021/03/05 14:42:21;;;;;;;5.00;2.90;;;;;;;;;;5063050;28;20647;-60
2021/03/05 14:44:49;;;;;;;9.33;1.30;;;;;;;;;;5062227;28;20265;-60
2021/03/05 14:47:16;;;;;;;15.37;2.10;;;;;;;;;;5062021;28;20179;-60
2021/03/05 14:49:42;;;;;;;9.67;3.70;;;;;;;;;;5062079;28;20202;-60
2021/03/05 14:52:09;;;;;;;0.23;0.23;;;;;;;;;;5067147;28;20202;-60
2021/03/05 14:54:35;;;;;;;1.17;0.40;;;;;;;;;;5060716;28;20198;-61
2021/03/05 14:57:02;;;;;;;0.03;0.03;;;;;;;;;;5062872;28;20188;-61
2021/03/05 14:59:30;;;;;;;0.20;0.20;;;;;;;;;;5065883;28;20661;-60
2021/03/05 15:01:56;;;;;;;2.23;1.10;;;;;;;;;;5064876;28;20184;-59
2021/03/05 15:04:24;;;;;;;2.90;2.37;;;;;;;;;;5066209;28;20276;-60
2021/03/05 15:06:51;;;;;;;0.67;0.67;;;;;;;;;;5067330;28;20185;-60
2021/03/05 15:09:19;;;;;;;9.47;2.77;;;;;;;;;;5069524;28;20685;-60
2021/03/05 15:11:45;;;;;;;2.53;0.37;;;;;;;;;;5069891;28;20175;-60
2021/03/05 15:14:12;;;;;;;1.60;1.50;;;;;;;;;;5069533;28;21779;-60
2021/03/05 15:16:40;;;;;;;0.20;0.20;;;;;;;;;;5068682;28;20227;-61
2021/03/05 15:19:12;;;;;;;0.87;0.43;;;;;;;;;;5069386;28;20179;-60
2021/03/05 15:21:40;;;;;;;0.63;0.47;;;;;;;;;;5065050;28;20179;-62
2021/03/05 15:24:07;;;;;;;0.00;0.00;;;;;;;;;;5058457;28;20180;-64
2021/03/05 15:26:33;;;;;;;1.70;0.70;;;;;;;;;;5063861;28;20222;-63
2021/03/05 15:29:00;;;;;;;2.53;1.70;;;;;;;;;;5063650;28;20226;-64
2021/03/05 15:31:26;;;;;;;1.67;1.57;;;;;;;;;;5058466;28;20278;-64
2021/03/05 15:33:53;;;;;;;1.17;1.07;;;;;;;;;;5059448;28;20285;-65
2021/03/05 15:36:19;;;;;;;7.70;3.57;;;;;;;;;;5059853;28;20190;-64
2021/03/05 15:38:46;;;;;;;4.93;1.60;;;;;;;;;;5056941;28;20179;-64
2021/03/05 15:41:12;;;;;;;1.80;0.77;;;;;;;;;;5055031;28;20188;-64
2021/03/05 15:43:39;;;;;;;1.17;0.40;;;;;;;;;;5055117;28;20182;-64
2021/03/05 15:46:06;;;;;;;7.40;1.93;;;;;;;;;;5053145;28;20590;-64
2021/03/05 15:48:32;;;;;;;0.23;0.23;;;;;;;;;;5055310;28;20697;-63
2021/03/05 15:50:59;;;;;;;1.70;0.83;;;;;;;;;;5036405;28;20184;-64
2021/03/05 15:53:26;;;;;;;4.37;1.13;;;;;;;;;;5051746;28;20230;-63
2021/03/05 15:55:53;;;;;;;1.60;1.03;;;;;;;;;;5060456;28;20234;-64
2021/03/05 15:58:20;;;;;;;1.60;0.73;;;;;;;;;;5060731;28;20185;-63
2021/03/05 16:00:46;;;;;;;0.23;0.23;;;;;;;;;;5057748;28;20210;-63
2021/03/05 16:03:15;;;;;;;4.70;1.10;;;;;;;;;;5056928;28;20218;-63
2021/03/05 16:05:42;;;;;;;0.50;0.50;;;;;;;;;;5057893;28;20721;-62
2021/03/05 16:08:08;;;;;;;3.30;1.43;;;;;;;;;;5059228;28;20216;-63
2021/03/05 16:10:35;;;;;;;0.10;0.03;;;;;;;;;;5063074;28;20606;-63
2021/03/05 16:13:02;;;;;;;3.40;1.17;;;;;;;;;;5057626;28;20180;-62
2021/03/05 16:15:30;;;;;;;0.40;0.40;;;;;;;;;;5057028;28;20272;-63
2021/03/05 16:17:58;;;;;;;0.00;0.00;;;;;;;;;;5061916;28;20852;-63
2021/03/05 16:20:24;;;;;;;1.47;0.57;;;;;;;;;;5060889;28;20182;-63
2021/03/05 16:22:51;;;;;;;0.40;0.40;;;;;;;;;;5042565;28;20179;-63
2021/03/05 16:25:20;;;;;;;0.77;0.77;;;;;;;;;;5059709;28;20200;-63
2021/03/05 16:27:50;;;;;;;4.43;1.23;;;;;;;;;;5060658;28;20785;-63
2021/03/05 16:30:17;;;;;;;5.73;0.93;;;;;;;;;;5059508;28;20232;-64
2021/03/05 16:32:43;;;;;;;0.20;0.20;;;;;;;;;;5057749;28;20172;-63
2021/03/05 16:35:12;;;;;;;2.90;0.33;;;;;;;;;;5059390;28;20180;-63
2021/03/05 16:37:39;;;;;;;0.20;0.20;;;;;;;;;;5059395;28;20170;-63
2021/03/05 16:40:06;;;;;;;0.23;0.23;;;;;;;;;;5061787;28;20748;-63
2021/03/05 16:42:32;;;;;;;4.03;0.70;;;;;;;;;;5060420;28;22093;-63
2021/03/05 16:44:59;;;;;;;3.50;0.83;;;;;;;;;;5061517;28;20187;-63
2021/03/05 16:47:25;;;;;;;0.43;0.43;;;;;;;;;;5059100;28;20570;-63
2021/03/05 16:49:52;;;;;;;7.00;1.77;;;;;;;;;;5060614;28;20205;-63
2021/03/05 16:52:19;;;;;;;2.37;1.60;;;;;;;;;;5058262;28;20239;-63
2021/03/05 16:54:45;;;;;;;0.13;0.13;;;;;;;;;;5059126;28;20549;-63
2021/03/05 16:57:13;;;;;;;1.63;1.53;;;;;;;;;;5058804;28;20733;-63
2021/03/05 16:59:39;;;;;;;1.67;1.53;;;;;;;;;;5054864;28;20175;-63
2021/03/05 17:02:06;;;;;;;0.20;0.20;;;;;;;;;;5056864;28;20179;-63
2021/03/05 17:04:33;;;;;;;7.07;1.13;;;;;;;;;;5059460;28;20361;-63
2021/03/05 17:07:00;;;;;;;1.30;1.03;;;;;;;;;;5059657;28;20896;-62
2021/03/05 17:09:27;;;;;;;1.67;1.57;;;;;;;;;;5065394;28;20704;-64
2021/03/05 17:11:53;;;;;;;0.77;0.53;;;;;;;;;;5059823;28;20183;-63
2021/03/05 17:14:20;;;;;;;3.47;1.87;;;;;;;;;;5057974;28;20333;-63
2021/03/05 17:16:46;;;;;;;1.87;1.10;;;;;;;;;;5060482;28;20206;-63
2021/03/05 17:19:13;;;;;;;3.23;1.47;;;;;;;;;;5061000;28;20183;-63
2021/03/05 17:21:40;;;;;;;0.50;0.50;;;;;;;;;;5059235;28;20181;-64
2021/03/05 17:24:07;;;;;;;0.53;0.30;;;;;;;;;;5058868;28;20185;-63
2021/03/05 17:26:34;;;;;;;3.00;1.53;;;;;;;;;;5057081;28;20258;-62
2021/03/05 17:29:01;;;;;;;2.73;0.73;;;;;;;;;;5058865;28;20229;-62
2021/03/05 17:31:28;;;;;;;1.50;1.40;;;;;;;;;;5058523;28;20241;-64
2021/03/05 17:33:54;;;;;;;0.20;0.20;;;;;;;;;;5058690;28;20192;-63
2021/03/05 17:36:22;;;;;;;2.23;1.73;;;;;;;;;;5059072;28;20170;-63
2021/03/05 17:38:48;;;;;;;1.73;1.07;;;;;;;;;;5057496;28;20175;-63
2021/03/05 17:41:16;;;;;;;17.57;4.60;;;;;;;;;;5057933;28;20898;-63
2021/03/05 17:43:42;;;;;;;2.40;1.20;;;;;;;;;;5054767;28;20181;-63
2021/03/05 17:46:09;;;;;;;0.40;0.33;;;;;;;;;;5060452;28;20202;-65
2021/03/05 17:48:36;;;;;;;1.77;1.53;;;;;;;;;;5060577;28;20202;-63
2021/03/05 17:51:02;;;;;;;1.23;0.23;;;;;;;;;;5059499;28;20167;-63
2021/03/05 17:53:29;;;;;;;1.27;1.00;;;;;;;;;;5055454;28;20190;-63
2021/03/05 17:55:55;;;;;;;0.90;0.90;;;;;;;;;;5057367;28;20189;-62
2021/03/05 17:58:22;;;;;;;4.57;1.17;;;;;;;;;;5058527;28;20193;-62
2021/03/05 18:00:49;;;;;;;1.60;1.50;;;;;;;;;;5056082;28;20168;-63
2021/03/05 18:03:17;;;;;;;0.97;0.60;;;;;;;;;;5056204;28;20190;-63
2021/03/05 18:05:43;;;;;;;1.70;0.67;;;;;;;;;;5052796;28;20297;-63
2021/03/05 18:08:10;;;;;;;3.03;1.20;;;;;;;;;;5055668;28;20278;-62
2021/03/05 18:10:37;;;;;;;0.20;0.20;;;;;;;;;;5061633;28;20280;-64
2021/03/05 18:13:05;;;;;;;1.60;1.40;;;;;;;;;;5060344;28;20183;-63
2021/03/05 18:15:33;;;;;;;2.17;1.63;;;;;;;;;;5058761;28;20178;-64
2021/03/05 18:18:00;;;;;;;1.13;1.00;;;;;;;;;;5063444;28;20229;-63
2021/03/05 18:20:27;;;;;;;0.30;0.30;;;;;;;;;;5062857;28;20841;-63
2021/03/05 18:22:54;;;;;;;3.60;0.70;;;;;;;;;;5064490;28;20210;-62
2021/03/05 18:25:22;;;;;;;3.47;0.80;;;;;;;;;;5062175;28;20637;-63
2021/03/05 18:27:49;;;;;;;11.47;3.10;;;;;;;;;;5063159;28;20883;-63
2021/03/05 18:30:15;;;;;;;2.70;0.87;;;;;;;;;;5061482;28;20223;-63
2021/03/05 18:32:42;;;;;;;8.53;2.43;;;;;;;;;;5062686;28;20257;-62
2021/03/05 18:35:12;;;;;;;1.17;0.40;;;;;;;;;;5056685;28;20341;-62
2021/03/05 18:37:39;;;;;;;4.00;0.90;;;;;;;;;;5058982;28;20183;-62
2021/03/05 18:40:06;;;;;;;1.23;0.23;;;;;;;;;;5060672;28;20201;-63
2021/03/05 18:42:33;;;;;;;2.03;1.13;;;;;;;;;;5065111;28;20193;-63
2021/03/05 18:45:00;;;;;;;0.67;0.50;;;;;;;;;;5063610;28;20183;-63
2021/03/05 18:47:27;;;;;;;0.00;0.00;;;;;;;;;;5065502;28;20289;-64
2021/03/05 18:49:53;;;;;;;0.23;0.23;;;;;;;;;;5064829;28;20674;-65
2021/03/05 18:52:20;;;;;;;0.10;0.10;;;;;;;;;;5065730;28;20674;-63
2021/03/05 18:54:48;;;;;;;0.07;0.07;;;;;;;;;;5066685;28;20218;-63
2021/03/05 18:57:15;;;;;;;0.40;0.40;;;;;;;;;;5068653;28;20240;-63
2021/03/05 18:59:42;;;;;;;0.80;0.80;;;;;;;;;;5062753;28;20208;-64
2021/03/05 19:02:09;;;;;;;2.73;0.90;;;;;;;;;;5068175;28;20183;-64
2021/03/05 19:04:39;;;;;;;1.20;1.13;;;;;;;;;;5065985;28;20753;-63
2021/03/05 19:07:06;;;;;;;0.20;0.20;;;;;;;;;;5060590;28;20180;-63
2021/03/05 19:09:33;;;;;;;0.00;0.00;;;;;;;;;;5063984;28;20209;-63
2021/03/05 19:11:59;;;;;;;1.07;1.07;;;;;;;;;;5059718;28;20911;-63
2021/03/05 19:14:28;;;;;;;1.40;1.30;;;;;;;;;;5058696;28;20172;-63
2021/03/05 19:16:55;;;;;;;2.90;0.97;;;;;;;;;;5063698;28;20172;-63
2021/03/05 19:19:22;;;;;;;1.03;0.20;;;;;;;;;;5056831;28;20222;-65
2021/03/05 19:21:49;;;;;;;3.23;0.83;;;;;;;;;;5057744;28;20182;-64
2021/03/05 19:24:15;;;;;;;1.87;0.87;;;;;;;;;;5060512;28;21069;-65
2021/03/05 19:26:42;;;;;;;0.43;0.40;;;;;;;;;;5062221;28;20191;-64
2021/03/05 19:29:09;;;;;;;0.47;0.47;;;;;;;;;;5058409;28;20222;-63
2021/03/05 19:31:35;;;;;;;0.93;0.57;;;;;;;;;;5056154;28;20269;-63
2021/03/05 19:34:04;;;;;;;2.00;1.23;;;;;;;;;;5057055;28;20199;-64
2021/03/05 19:36:30;;;;;;;0.07;0.07;;;;;;;;;;5054404;28;20179;-63
2021/03/05 19:38:57;;;;;;;1.10;0.70;;;;;;;;;;5051414;28;20294;-63
2021/03/05 19:41:23;;;;;;;0.00;0.00;;;;;;;;;;5056026;28;20180;-64
2021/03/05 19:43:50;;;;;;;0.40;0.40;;;;;;;;;;5059634;28;20190;-63
2021/03/05 19:46:16;;;;;;;0.77;0.67;;;;;;;;;;5059127;28;20178;-64
2021/03/05 19:48:43;;;;;;;0.00;0.00;;;;;;;;;;5059519;28;20214;-63
2021/03/05 19:51:10;;;;;;;0.40;0.20;;;;;;;;;;5061370;28;20331;-63
2021/03/05 19:53:36;;;;;;;0.10;0.10;;;;;;;;;;5055729;28;20714;-63
2021/03/05 19:56:03;;;;;;;0.67;0.47;;;;;;;;;;5059000;28;20175;-62
2021/03/05 19:58:29;;;;;;;0.73;0.40;;;;;;;;;;5060889;28;20194;-62
2021/03/05 20:00:56;;;;;;;0.73;0.63;;;;;;;;;;5058069;28;21829;-63
2021/03/05 20:03:22;;;;;;;2.63;0.83;;;;;;;;;;5060856;28;20225;-62
2021/03/05 20:05:51;;;;;;;3.30;0.33;;;;;;;;;;5063621;28;20185;-61
2021/03/05 20:08:18;;;;;;;0.43;0.30;;;;;;;;;;5062239;28;20218;-62
2021/03/05 20:10:44;;;;;;;0.30;0.27;;;;;;;;;;5038269;28;20201;-63
2021/03/05 20:13:11;;;;;;;0.27;0.27;;;;;;;;;;5051832;28;20747;-61
2021/03/05 20:15:39;;;;;;;2.37;0.90;;;;;;;;;;5051815;28;20839;-64